createdAt,value
2023-04-19T00:03:01.262Z,20.40
2023-04-19T00:13:04.525Z,22.10
2023-04-19T00:23:07.715Z,18.10
2023-04-19T00:33:13.162Z,23.10
2023-04-19T00:43:19.936Z,22.90
2023-04-19T00:53:23.018Z,21.40
2023-04-19T01:03:29.610Z,19.80
2023-04-19T01:14:05.480Z,19.30
2023-04-19T01:24:08.607Z,16.90
2023-04-19T01:34:11.660Z,16.70
2023-04-19T01:44:15.069Z,17.30
2023-04-19T01:54:18.388Z,18.50
2023-04-19T02:04:22.304Z,19.20
2023-04-19T02:14:26.077Z,21.50
2023-04-19T02:24:29.760Z,19.80
2023-04-19T02:34:34.790Z,20.30
2023-04-19T02:44:38.090Z,21.00
2023-04-19T02:55:13.158Z,20.70
2023-04-19T03:05:17.234Z,19.20
2023-04-19T03:15:20.859Z,18.20
2023-04-19T03:25:23.964Z,14.10
2023-04-19T03:36:07.180Z,14.50
2023-04-19T03:46:43.681Z,16.80
2023-04-19T03:56:48.145Z,14.40
2023-04-19T04:06:51.881Z,21.30
2023-04-19T04:17:27.764Z,17.00
2023-04-19T04:27:31.556Z,21.50
2023-04-19T04:37:35.750Z,25.80
2023-04-19T04:48:11.692Z,29.00
2023-04-19T04:58:15.040Z,27.70
2023-04-19T05:08:45.195Z,28.40
2023-04-19T05:18:55.683Z,27.30
2023-04-19T05:28:59.915Z,28.20
2023-04-19T05:39:21.326Z,26.50
2023-04-19T05:49:56.548Z,30.30
2023-04-19T06:00:13.546Z,24.60
2023-04-19T06:10:16.650Z,22.90
2023-04-19T06:20:19.869Z,22.10
2023-04-19T06:30:55.742Z,21.40
2023-04-19T06:41:30.380Z,20.50
2023-04-19T06:51:34.015Z,22.80
2023-04-19T07:01:38.432Z,21.80
2023-04-19T07:11:41.730Z,21.10
2023-04-19T07:21:44.895Z,22.30
2023-04-19T07:31:48.278Z,19.00
2023-04-19T07:42:24.727Z,16.70
2023-04-19T07:52:27.850Z,16.30
2023-04-19T08:02:31.273Z,15.80
2023-04-19T08:12:42.703Z,15.80
2023-04-19T08:23:31.810Z,15.10
2023-04-19T08:33:41.140Z,15.00
2023-04-19T08:43:44.319Z,16.30
2023-04-19T08:53:49.782Z,17.30
2023-04-19T09:04:04.922Z,17.40
2023-04-19T09:14:16.540Z,15.60
2023-04-19T09:24:19.718Z,12.90
2023-04-19T09:34:24.190Z,14.50
2023-04-19T09:54:34.325Z,14.50
2023-04-19T10:05:20.460Z,9.70
2023-04-19T10:16:15.497Z,10.30
2023-04-19T10:26:22.410Z,7.50
2023-04-19T10:36:58.066Z,7.30
2023-04-19T10:47:01.221Z,8.10
2023-04-19T10:57:06.446Z,9.80
2023-04-19T11:07:09.763Z,8.00
2023-04-19T11:17:18.111Z,10.60
2023-04-19T11:27:53.788Z,10.40
2023-04-19T11:38:29.022Z,9.80
2023-04-19T11:48:36.320Z,8.30
2023-04-19T11:58:52.166Z,8.70
2023-04-19T12:08:59.848Z,9.10
2023-04-19T12:19:58.396Z,11.00
2023-04-19T12:30:01.935Z,9.80
2023-04-19T12:40:10.194Z,9.20
2023-04-19T12:50:46.124Z,14.10
2023-04-19T13:01:21.402Z,12.40
2023-04-19T13:11:24.606Z,12.30
2023-04-19T13:21:28.194Z,18.30
2023-04-19T13:32:07.845Z,20.50
2023-04-19T13:42:24.539Z,27.00
2023-04-19T13:52:35.511Z,16.60
2023-04-19T14:02:42.314Z,15.90
2023-04-19T14:13:29.681Z,14.00
2023-04-19T14:24:07.878Z,20.90
2023-04-19T14:34:13.858Z,14.00
2023-04-19T14:44:22.632Z,12.70
2023-04-19T14:54:28.548Z,16.70
2023-04-19T15:05:04.696Z,18.80
2023-04-19T15:15:11.206Z,19.20
2023-04-19T15:25:14.714Z,23.90
2023-04-19T15:35:18.004Z,24.50
2023-04-19T15:45:53.416Z,24.50
2023-04-19T15:56:02.369Z,25.40
2023-04-19T16:06:09.353Z,28.10
2023-04-19T16:16:55.599Z,24.30
2023-04-19T16:27:31.433Z,27.10
2023-04-19T16:37:35.424Z,26.80
2023-04-19T16:47:46.457Z,24.00
2023-04-19T17:08:46.084Z,23.20
2023-04-19T17:18:49.158Z,22.70
2023-04-19T17:28:52.248Z,23.70
2023-04-19T17:38:55.287Z,23.00
2023-04-19T17:48:58.522Z,23.50
2023-04-19T17:59:03.897Z,23.50
2023-04-19T18:09:07.799Z,27.20
2023-04-19T18:19:11.057Z,37.20
2023-04-19T18:29:16.084Z,25.00
2023-04-19T18:39:19.430Z,30.70
2023-04-19T18:49:25.808Z,33.30
2023-04-19T18:59:29.010Z,30.40
2023-04-19T19:09:32.044Z,27.20
2023-04-19T19:19:35.581Z,28.10
2023-04-19T19:29:38.914Z,29.70
2023-04-19T19:39:42.009Z,26.10
2023-04-19T19:50:09.706Z,27.10
2023-04-19T20:00:31.913Z,28.00
2023-04-19T20:10:34.203Z,28.60
2023-04-19T20:20:37.587Z,26.60
2023-04-19T20:30:41.231Z,30.90
2023-04-19T20:40:44.745Z,25.30
2023-04-19T20:50:47.786Z,31.30
2023-04-19T21:00:51.254Z,29.90
2023-04-19T21:10:54.346Z,27.00
2023-04-19T21:20:59.076Z,30.80
2023-04-19T21:31:02.734Z,29.50
2023-04-19T21:41:07.412Z,26.00
2023-04-19T21:51:12.853Z,33.30
2023-04-19T22:11:20.252Z,30.00
2023-04-19T22:21:25.492Z,32.20
2023-04-19T22:31:28.806Z,31.50
2023-04-19T22:41:33.484Z,31.70
2023-04-19T22:51:39.700Z,34.80
2023-04-19T23:01:43.168Z,40.90
2023-04-19T23:11:47.379Z,38.40
2023-04-19T23:21:50.455Z,38.00
2023-04-19T23:31:53.653Z,39.70
2023-04-19T23:41:56.790Z,38.10
2023-04-19T23:52:00.124Z,39.10
